createdAt,value
2023-03-06T00:01:02.045Z,17.30
2023-03-06T00:03:30.105Z,18.23
2023-03-06T00:05:59.209Z,19.42
2023-03-06T00:08:29.262Z,22.08
2023-03-06T00:10:58.291Z,19.00
2023-03-06T00:13:30.223Z,18.45
2023-03-06T00:16:01.210Z,19.27
2023-03-06T00:18:29.548Z,15.48
2023-03-06T00:20:57.965Z,16.88
2023-03-06T00:23:26.232Z,20.40
2023-03-06T00:25:54.273Z,17.65
2023-03-06T00:28:22.433Z,20.33
2023-03-06T00:30:50.880Z,21.20
2023-03-06T00:33:19.201Z,17.45
2023-03-06T00:35:47.591Z,16.02
2023-03-06T00:38:15.730Z,14.87
2023-03-06T00:40:43.782Z,14.07
2023-03-06T00:43:15.108Z,15.93
2023-03-06T00:45:43.445Z,14.40
2023-03-06T00:48:11.405Z,17.42
2023-03-06T00:50:39.646Z,14.68
2023-03-06T00:53:08.553Z,16.38
2023-03-06T00:55:36.649Z,14.85
2023-03-06T00:58:05.157Z,15.73
2023-03-06T01:00:33.220Z,16.15
2023-03-06T01:03:01.141Z,25.17
2023-03-06T01:05:30.618Z,23.63
2023-03-06T01:08:00.578Z,23.98
2023-03-06T01:10:29.071Z,18.67
2023-03-06T01:12:57.605Z,17.17
2023-03-06T01:15:27.122Z,17.70
2023-03-06T01:17:55.623Z,18.70
2023-03-06T01:20:23.982Z,16.95
2023-03-06T01:22:52.183Z,17.00
2023-03-06T01:25:26.449Z,18.77
2023-03-06T01:27:54.595Z,16.77
2023-03-06T01:30:22.608Z,18.50
2023-03-06T01:32:50.690Z,16.77
2023-03-06T01:35:19.018Z,20.10
2023-03-06T01:37:46.951Z,16.17
2023-03-06T01:40:15.163Z,19.10
2023-03-06T01:42:43.392Z,18.40
2023-03-06T01:45:14.680Z,18.30
2023-03-06T01:47:42.852Z,17.50
2023-03-06T01:50:11.975Z,17.15
2023-03-06T01:52:56.241Z,17.10
2023-03-06T01:55:33.946Z,19.35
2023-03-06T01:58:11.293Z,17.87
2023-03-06T02:00:41.476Z,15.73
2023-03-06T02:03:22.912Z,15.73
2023-03-06T02:05:51.504Z,15.18
2023-03-06T02:08:23.372Z,16.57
2023-03-06T02:11:15.702Z,14.97
2023-03-06T02:13:45.085Z,15.93
2023-03-06T02:16:15.572Z,19.03
2023-03-06T02:18:46.119Z,14.47
2023-03-06T02:21:25.566Z,18.27
2023-03-06T02:23:56.316Z,18.30
2023-03-06T02:26:27.095Z,14.13
2023-03-06T02:31:31.287Z,19.23
2023-03-06T02:34:17.049Z,18.93
2023-03-06T02:37:02.788Z,17.47
2023-03-06T02:39:34.278Z,15.63
2023-03-06T02:44:35.265Z,17.77
2023-03-06T02:47:03.598Z,19.35
2023-03-06T02:49:31.608Z,15.40
2023-03-06T02:51:59.684Z,16.40
2023-03-06T02:54:27.853Z,17.17
2023-03-06T02:56:56.061Z,16.10
2023-03-06T02:59:24.778Z,17.80
2023-03-06T03:01:54.801Z,16.87
2023-03-06T03:04:22.811Z,15.57
2023-03-06T03:06:50.993Z,16.67
2023-03-06T03:09:19.628Z,17.83
2023-03-06T03:11:47.752Z,17.03
2023-03-06T03:14:16.996Z,19.70
2023-03-06T03:16:47.288Z,15.55
2023-03-06T03:19:15.311Z,18.13
2023-03-06T03:21:44.125Z,14.47
2023-03-06T03:24:12.200Z,15.40
2023-03-06T03:26:40.463Z,15.52
2023-03-06T03:29:13.755Z,15.68
2023-03-06T03:31:41.892Z,14.57
2023-03-06T03:34:10.375Z,16.17
2023-03-06T03:36:41.374Z,13.50
2023-03-06T03:39:11.140Z,17.93
2023-03-06T03:41:39.375Z,15.77
2023-03-06T03:44:10.980Z,16.00
2023-03-06T03:46:39.538Z,15.63
2023-03-06T03:49:12.557Z,18.67
2023-03-06T03:51:41.075Z,16.83
2023-03-06T03:54:09.476Z,16.73
2023-03-06T03:56:44.762Z,17.07
2023-03-06T03:59:26.803Z,15.30
2023-03-06T04:02:15.036Z,19.00
2023-03-06T04:04:51.560Z,15.77
2023-03-06T04:07:19.825Z,15.23
2023-03-06T04:09:48.212Z,14.83
2023-03-06T04:12:16.545Z,17.50
2023-03-06T04:14:44.795Z,16.00
2023-03-06T04:17:13.291Z,17.27
2023-03-06T04:19:41.331Z,17.47
2023-03-06T04:22:09.847Z,15.33
2023-03-06T04:24:39.975Z,16.07
2023-03-06T04:27:08.548Z,14.97
2023-03-06T04:29:37.545Z,13.70
2023-03-06T04:32:07.496Z,16.57
2023-03-06T04:34:35.905Z,15.10
2023-03-06T04:37:04.750Z,15.35
2023-03-06T04:39:32.867Z,16.77
2023-03-06T04:42:00.877Z,16.43
2023-03-06T04:44:29.098Z,16.07
2023-03-06T04:46:57.302Z,16.90
2023-03-06T04:49:25.200Z,17.83
2023-03-06T04:51:53.397Z,16.60
2023-03-06T04:54:21.551Z,20.97
2023-03-06T04:56:49.778Z,16.73
2023-03-06T04:59:18.046Z,19.27
2023-03-06T05:01:46.719Z,20.08
2023-03-06T05:04:15.113Z,22.47
2023-03-06T05:06:43.513Z,20.05
2023-03-06T05:09:11.600Z,19.50
2023-03-06T05:11:40.387Z,20.75
2023-03-06T05:14:11.356Z,20.70
2023-03-06T05:16:39.671Z,19.33
2023-03-06T05:19:08.252Z,20.25
2023-03-06T05:21:36.232Z,21.25
2023-03-06T05:24:04.541Z,18.55
2023-03-06T05:26:34.955Z,19.27
2023-03-06T05:29:03.273Z,19.90
2023-03-06T05:31:31.527Z,17.38
2023-03-06T05:34:00.758Z,17.85
2023-03-06T05:36:28.984Z,23.65
2023-03-06T05:38:57.411Z,23.13
2023-03-06T05:41:25.578Z,23.30
2023-03-06T05:43:54.111Z,20.92
2023-03-06T05:46:22.792Z,25.77
2023-03-06T05:48:53.312Z,25.05
2023-03-06T05:51:21.934Z,25.00
2023-03-06T05:53:50.385Z,24.35
2023-03-06T05:56:19.261Z,28.45
2023-03-06T05:58:48.032Z,24.00
2023-03-06T06:01:20.380Z,27.52
2023-03-06T06:03:49.194Z,22.70
2023-03-06T06:06:18.646Z,17.90
2023-03-06T06:08:46.984Z,18.17
2023-03-06T06:11:15.777Z,21.33
2023-03-06T06:13:43.994Z,20.33
2023-03-06T06:16:19.929Z,22.52
2023-03-06T06:18:48.406Z,19.42
2023-03-06T06:21:16.708Z,22.65
2023-03-06T06:23:44.980Z,19.23
2023-03-06T06:26:13.047Z,22.63
2023-03-06T06:28:41.148Z,20.33
2023-03-06T06:31:13.931Z,19.27
2023-03-06T06:33:42.565Z,23.30
2023-03-06T06:36:21.478Z,20.00
2023-03-06T06:38:49.948Z,16.75
2023-03-06T06:44:09.544Z,14.73
2023-03-06T06:49:35.786Z,12.85
2023-03-06T06:52:05.552Z,12.50
2023-03-06T06:54:34.843Z,13.43
2023-03-06T06:57:03.167Z,12.65
2023-03-06T06:59:31.337Z,14.55
2023-03-06T07:01:59.704Z,12.35
2023-03-06T07:04:28.435Z,14.30
2023-03-06T07:06:57.322Z,12.63
2023-03-06T07:09:25.477Z,14.27
2023-03-06T07:11:53.763Z,13.65
2023-03-06T07:14:22.268Z,13.35
2023-03-06T07:16:50.678Z,13.65
2023-03-06T07:19:19.068Z,17.15
2023-03-06T07:21:47.208Z,14.23
2023-03-06T07:24:15.521Z,15.45
2023-03-06T07:26:48.228Z,13.38
2023-03-06T07:29:16.751Z,14.45
2023-03-06T07:31:45.643Z,14.48
2023-03-06T07:34:15.296Z,14.77
2023-03-06T07:36:45.766Z,14.27
2023-03-06T07:39:14.933Z,16.55
2023-03-06T07:41:43.632Z,14.38
2023-03-06T07:44:11.780Z,16.17
2023-03-06T07:46:39.805Z,14.23
2023-03-06T07:49:11.566Z,14.18
2023-03-06T07:51:39.889Z,12.85
2023-03-06T07:54:08.359Z,13.27
2023-03-06T07:56:37.110Z,13.60
2023-03-06T07:59:05.510Z,14.35
2023-03-06T08:01:33.675Z,14.52
2023-03-06T08:04:02.290Z,12.95
2023-03-06T08:06:30.506Z,12.50
2023-03-06T08:08:59.378Z,14.18
2023-03-06T08:11:30.619Z,15.60
2023-03-06T08:13:59.694Z,12.60
2023-03-06T08:16:30.373Z,15.20
2023-03-06T08:18:59.030Z,13.68
2023-03-06T08:21:29.081Z,14.68
2023-03-06T08:23:58.801Z,15.30
2023-03-06T08:26:30.593Z,15.05
2023-03-06T08:31:39.645Z,14.40
2023-03-06T08:34:11.787Z,14.25
2023-03-06T08:36:41.382Z,14.52
2023-03-06T08:39:09.992Z,15.38
2023-03-06T08:41:38.803Z,14.43
2023-03-06T08:44:08.354Z,14.38
2023-03-06T08:46:37.504Z,14.35
2023-03-06T08:49:05.783Z,13.70
2023-03-06T08:51:33.959Z,15.05
2023-03-06T08:54:02.514Z,14.43
2023-03-06T08:56:33.821Z,13.68
2023-03-06T08:59:05.502Z,14.10
2023-03-06T09:01:37.952Z,12.63
2023-03-06T09:04:11.062Z,14.00
2023-03-06T09:06:42.899Z,14.18
2023-03-06T09:11:40.482Z,12.82
2023-03-06T09:14:08.918Z,13.15
2023-03-06T09:16:37.143Z,14.05
2023-03-06T09:19:05.517Z,12.57
2023-03-06T09:21:33.941Z,14.50
2023-03-06T09:24:02.498Z,13.13
2023-03-06T09:26:44.990Z,13.35
2023-03-06T09:29:16.460Z,16.25
2023-03-06T09:31:46.052Z,14.35
2023-03-06T09:34:14.649Z,15.93
2023-03-06T09:36:56.042Z,13.43
2023-03-06T09:39:27.530Z,15.35
2023-03-06T09:41:58.846Z,13.27
2023-03-06T09:44:35.114Z,14.77
2023-03-06T09:47:34.107Z,12.70
2023-03-06T09:50:38.799Z,13.43
2023-03-06T09:53:41.318Z,12.70
2023-03-06T09:56:19.683Z,12.65
2023-03-06T09:58:53.992Z,13.13
2023-03-06T10:01:38.371Z,12.52
2023-03-06T10:04:44.395Z,10.35
2023-03-06T10:07:28.582Z,11.80
2023-03-06T10:10:07.172Z,11.93
2023-03-06T10:12:42.741Z,10.77
2023-03-06T10:15:50.093Z,11.32
2023-03-06T10:18:18.486Z,12.32
2023-03-06T10:21:17.021Z,11.93
2023-03-06T10:24:09.838Z,12.13
2023-03-06T10:27:05.764Z,10.38
2023-03-06T10:30:01.649Z,10.85
2023-03-06T10:32:49.982Z,10.27
2023-03-06T10:35:50.438Z,13.70
2023-03-06T10:38:32.479Z,13.65
2023-03-06T10:41:28.381Z,9.02
2023-03-06T10:44:05.620Z,9.40
2023-03-06T10:46:42.614Z,11.88
2023-03-06T10:49:25.625Z,10.43
2023-03-06T10:52:15.240Z,8.63
2023-03-06T10:54:44.748Z,9.60
2023-03-06T10:57:31.726Z,10.68
2023-03-06T11:00:08.680Z,11.13
2023-03-06T11:02:41.358Z,11.10
2023-03-06T11:05:22.226Z,9.70
2023-03-06T11:07:57.371Z,10.30
2023-03-06T11:10:27.406Z,9.95
2023-03-06T11:13:21.961Z,9.43
2023-03-06T11:16:32.951Z,10.68
2023-03-06T11:19:07.512Z,11.63
2023-03-06T11:21:40.071Z,11.32
2023-03-06T11:24:21.730Z,11.25
2023-03-06T11:27:02.144Z,11.32
2023-03-06T11:29:45.141Z,11.55
2023-03-06T11:32:54.172Z,12.98
2023-03-06T11:35:28.814Z,12.68
2023-03-06T11:38:07.042Z,13.65
2023-03-06T11:40:50.502Z,12.52
2023-03-06T11:43:51.179Z,13.50
2023-03-06T11:46:29.339Z,14.90
2023-03-06T11:49:29.845Z,12.95
2023-03-06T11:52:04.816Z,13.98
2023-03-06T11:54:33.816Z,14.23
2023-03-06T11:57:22.798Z,12.82
2023-03-06T12:00:08.188Z,14.63
2023-03-06T12:03:20.439Z,12.93
2023-03-06T12:06:01.474Z,13.70
2023-03-06T12:09:21.243Z,12.90
2023-03-06T12:12:39.134Z,11.77
2023-03-06T12:15:44.732Z,13.30
2023-03-06T12:18:38.548Z,13.98
2023-03-06T12:21:54.343Z,11.93
2023-03-06T12:25:01.864Z,14.30
2023-03-06T12:28:04.247Z,11.75
2023-03-06T12:31:12.542Z,11.38
2023-03-06T12:34:38.772Z,12.15
2023-03-06T12:37:33.747Z,12.77
2023-03-06T12:40:32.703Z,10.07
2023-03-06T12:43:20.524Z,13.02
2023-03-06T12:45:53.539Z,14.00
2023-03-06T12:48:26.802Z,13.95
2023-03-06T12:50:55.626Z,14.07
2023-03-06T12:53:32.406Z,13.77
2023-03-06T12:56:02.472Z,13.65
2023-03-06T12:58:30.518Z,13.27
2023-03-06T13:01:28.332Z,12.85
2023-03-06T13:04:34.414Z,12.82
2023-03-06T13:07:37.276Z,12.52
2023-03-06T13:10:40.509Z,14.20
2023-03-06T13:13:44.888Z,14.57
2023-03-06T13:16:33.867Z,16.48
2023-03-06T13:19:11.567Z,14.75
2023-03-06T13:21:42.819Z,12.77
2023-03-06T13:24:37.870Z,15.48
2023-03-06T13:27:12.760Z,14.57
2023-03-06T13:29:40.772Z,13.73
2023-03-06T13:32:14.733Z,15.60
2023-03-06T13:34:50.381Z,15.32
2023-03-06T13:37:24.881Z,16.60
2023-03-06T13:39:56.006Z,13.85
2023-03-06T13:42:44.358Z,17.30
2023-03-06T13:45:26.190Z,17.65
2023-03-06T13:48:24.614Z,16.83
2023-03-06T13:50:49.834Z,15.05
2023-03-06T13:53:52.150Z,16.42
2023-03-06T13:56:44.722Z,15.57
2023-03-06T13:59:14.226Z,16.30
2023-03-06T14:02:01.128Z,15.63
2023-03-06T14:05:01.826Z,16.13
2023-03-06T14:07:40.788Z,15.02
2023-03-06T14:10:15.265Z,15.57
2023-03-06T14:12:50.048Z,13.25
2023-03-06T14:15:52.325Z,14.32
2023-03-06T14:18:34.132Z,13.90
2023-03-06T14:21:05.653Z,13.77
2023-03-06T14:23:45.690Z,15.00
2023-03-06T14:26:25.175Z,15.63
2023-03-06T14:28:53.821Z,16.05
2023-03-06T14:31:24.579Z,14.38
2023-03-06T14:34:01.300Z,16.00
2023-03-06T14:36:44.022Z,16.35
2023-03-06T14:39:38.581Z,16.05
2023-03-06T14:42:28.763Z,15.40
2023-03-06T14:45:19.213Z,15.40
2023-03-06T14:47:52.538Z,15.95
2023-03-06T14:50:31.250Z,15.77
2023-03-06T14:53:24.084Z,14.50
2023-03-06T14:56:07.938Z,16.15
2023-03-06T14:59:10.603Z,14.20
2023-03-06T15:01:43.741Z,14.48
2023-03-06T15:04:21.737Z,14.15
2023-03-06T15:06:51.824Z,14.25
2023-03-06T15:09:33.181Z,16.02
2023-03-06T15:12:09.024Z,14.23
2023-03-06T15:14:43.227Z,14.00
2023-03-06T15:17:32.437Z,13.63
2023-03-06T15:20:01.646Z,13.43
2023-03-06T15:22:38.036Z,13.70
2023-03-06T15:25:31.051Z,12.57
2023-03-06T15:28:38.824Z,11.50
2023-03-06T15:31:24.865Z,11.70
2023-03-06T15:34:12.397Z,10.43
2023-03-06T15:36:51.633Z,8.70
2023-03-06T15:39:40.715Z,9.48
2023-03-06T15:42:25.889Z,9.35
2023-03-06T15:45:03.625Z,9.30
2023-03-06T15:47:31.919Z,8.88
2023-03-06T15:50:00.171Z,9.55
2023-03-06T15:52:31.461Z,9.73
2023-03-06T15:54:59.860Z,8.20
2023-03-06T15:57:31.709Z,9.52
2023-03-06T16:00:01.668Z,10.15
2023-03-06T16:02:39.570Z,10.85
2023-03-06T16:05:17.281Z,11.93
2023-03-06T16:07:45.651Z,11.45
2023-03-06T16:10:17.943Z,12.27
2023-03-06T16:12:51.191Z,10.23
2023-03-06T16:15:29.308Z,12.25
2023-03-06T16:17:59.018Z,10.18
2023-03-06T16:20:29.357Z,12.20
2023-03-06T16:22:57.481Z,10.40
2023-03-06T16:25:28.535Z,10.48
2023-03-06T16:27:58.458Z,11.10
2023-03-06T16:30:29.938Z,11.18
2023-03-06T16:35:27.462Z,10.25
2023-03-06T16:37:55.945Z,8.77
2023-03-06T16:40:32.889Z,11.50
2023-03-06T16:43:01.186Z,9.45
2023-03-06T16:45:29.307Z,9.88
2023-03-06T16:47:59.424Z,9.13
2023-03-06T16:50:37.800Z,10.20
2023-03-06T16:53:08.119Z,9.70
2023-03-06T16:55:36.868Z,9.50
2023-03-06T16:58:05.525Z,9.73
2023-03-06T17:00:34.039Z,11.45
2023-03-06T17:03:02.958Z,14.13
2023-03-06T17:05:35.172Z,14.32
2023-03-06T17:08:04.683Z,14.68
2023-03-06T17:10:32.885Z,13.05
2023-03-06T17:13:01.627Z,12.68
2023-03-06T17:15:30.104Z,12.70
2023-03-06T17:17:59.225Z,12.93
2023-03-06T17:20:27.826Z,13.57
2023-03-06T17:22:56.713Z,14.40
2023-03-06T17:25:25.459Z,16.58
2023-03-06T17:27:54.793Z,16.92
2023-03-06T17:30:23.098Z,16.90
2023-03-06T17:32:51.326Z,14.00
2023-03-06T17:35:19.943Z,11.25
2023-03-06T17:37:48.655Z,9.98
2023-03-06T17:40:16.930Z,10.18
2023-03-06T17:42:45.742Z,9.90
2023-03-06T17:45:15.084Z,16.48
2023-03-06T17:47:43.421Z,15.38
2023-03-06T17:50:13.024Z,16.80
2023-03-06T17:52:41.792Z,16.52
2023-03-06T17:55:11.171Z,19.92
2023-03-06T17:57:39.926Z,19.25
2023-03-06T18:00:12.788Z,21.00
2023-03-06T18:02:41.245Z,19.77
2023-03-06T18:05:10.054Z,19.50
2023-03-06T18:07:38.617Z,18.27
2023-03-06T18:10:10.548Z,20.45
2023-03-06T18:12:39.145Z,20.38
2023-03-06T18:15:08.931Z,19.73
2023-03-06T18:17:38.816Z,20.13
2023-03-06T18:20:09.676Z,19.52
2023-03-06T18:22:38.105Z,21.80
2023-03-06T18:25:06.864Z,21.63
2023-03-06T18:27:37.404Z,24.15
2023-03-06T18:30:06.974Z,22.83
2023-03-06T18:32:36.551Z,18.80
2023-03-06T18:35:07.040Z,17.38
2023-03-06T18:37:35.349Z,14.95
2023-03-06T18:40:03.870Z,16.77
2023-03-06T18:42:36.274Z,17.23
2023-03-06T18:45:06.357Z,18.73
2023-03-06T18:47:35.076Z,17.75
2023-03-06T18:50:04.419Z,20.63
2023-03-06T18:52:35.128Z,21.48
2023-03-06T18:55:04.242Z,22.65
2023-03-06T18:57:32.450Z,22.33
2023-03-06T19:00:01.811Z,23.10
2023-03-06T19:02:30.484Z,22.15
2023-03-06T19:04:59.064Z,18.67
2023-03-06T19:07:27.615Z,20.13
2023-03-06T19:09:55.972Z,19.05
2023-03-06T19:12:24.239Z,21.75
2023-03-06T19:14:53.620Z,20.85
2023-03-06T19:17:24.937Z,19.75
2023-03-06T19:22:26.229Z,17.30
2023-03-06T19:24:55.091Z,16.92
2023-03-06T19:27:23.525Z,18.77
2023-03-06T19:29:52.682Z,16.40
2023-03-06T19:32:22.448Z,16.38
2023-03-06T19:34:51.539Z,14.85
2023-03-06T19:37:20.253Z,15.52
2023-03-06T19:39:49.048Z,15.30
2023-03-06T19:42:18.112Z,17.27
2023-03-06T19:44:46.519Z,15.43
2023-03-06T19:47:14.980Z,16.60
2023-03-06T19:49:43.520Z,17.38
2023-03-06T19:52:12.867Z,16.98
2023-03-06T19:54:42.205Z,15.07
2023-03-06T19:57:11.828Z,15.52
2023-03-06T19:59:40.638Z,15.68
2023-03-06T20:02:12.063Z,14.35
2023-03-06T20:04:40.587Z,15.32
2023-03-06T20:07:10.124Z,16.30
2023-03-06T20:09:40.341Z,15.07
2023-03-06T20:12:09.761Z,14.60
2023-03-06T20:14:39.420Z,16.23
2023-03-06T20:17:11.812Z,15.40
2023-03-06T20:19:41.818Z,16.73
2023-03-06T20:22:10.706Z,13.73
2023-03-06T20:24:41.322Z,15.55
2023-03-06T20:27:09.875Z,15.30
2023-03-06T20:29:43.744Z,13.45
2023-03-06T20:32:14.585Z,15.18
2023-03-06T20:34:44.173Z,13.37
2023-03-06T20:37:12.624Z,14.77
2023-03-06T20:39:41.295Z,13.93
2023-03-06T20:42:09.852Z,13.48
2023-03-06T20:44:38.871Z,13.48
2023-03-06T20:47:13.288Z,12.57
2023-03-06T20:49:42.384Z,12.48
2023-03-06T20:52:10.910Z,14.75
2023-03-06T20:54:40.147Z,11.68
2023-03-06T20:57:09.792Z,13.00
2023-03-06T20:59:38.944Z,12.20
2023-03-06T21:02:10.999Z,13.32
2023-03-06T21:04:41.312Z,12.07
2023-03-06T21:07:09.790Z,12.63
2023-03-06T21:09:41.635Z,11.43
2023-03-06T21:14:40.586Z,11.90
2023-03-06T21:17:13.975Z,11.73
2023-03-06T21:19:43.616Z,11.82
2023-03-06T21:22:14.085Z,14.18
2023-03-06T21:24:44.397Z,12.43
2023-03-06T21:27:13.300Z,13.10
2023-03-06T21:29:41.802Z,12.13
2023-03-06T21:32:10.677Z,14.20
2023-03-06T21:34:39.801Z,12.55
2023-03-06T21:37:09.161Z,13.93
2023-03-06T21:39:38.843Z,12.55
2023-03-06T21:42:11.184Z,13.13
2023-03-06T21:44:39.743Z,12.85
2023-03-06T21:47:09.013Z,13.40
2023-03-06T21:49:37.668Z,13.23
2023-03-06T21:52:06.611Z,13.23
2023-03-06T21:54:35.669Z,12.40
2023-03-06T21:57:04.710Z,11.60
2023-03-06T21:59:32.895Z,13.32
2023-03-06T22:02:02.160Z,14.55
2023-03-06T22:04:31.337Z,14.15
2023-03-06T22:06:59.895Z,13.45
2023-03-06T22:09:28.805Z,15.27
2023-03-06T22:11:57.998Z,13.23
2023-03-06T22:14:26.789Z,15.02
2023-03-06T22:16:57.000Z,13.57
2023-03-06T22:19:26.464Z,14.02
2023-03-06T22:21:55.943Z,13.27
2023-03-06T22:24:24.302Z,13.02
2023-03-06T22:26:52.847Z,15.10
2023-03-06T22:29:21.196Z,13.75
2023-03-06T22:31:49.684Z,13.77
2023-03-06T22:34:19.394Z,13.70
2023-03-06T22:36:48.526Z,14.45
2023-03-06T22:39:17.559Z,11.88
2023-03-06T22:41:47.483Z,12.80
2023-03-06T22:44:20.026Z,14.10
2023-03-06T22:46:49.536Z,12.18
2023-03-06T22:49:19.284Z,14.60
2023-03-06T22:51:48.334Z,13.43
2023-03-06T22:54:17.197Z,12.43
2023-03-06T22:56:45.489Z,12.70
2023-03-06T22:59:14.308Z,13.75
2023-03-06T23:01:43.824Z,13.13
2023-03-06T23:04:12.587Z,13.77
2023-03-06T23:06:43.420Z,13.07
2023-03-06T23:09:22.549Z,12.93
2023-03-06T23:12:11.629Z,14.40
2023-03-06T23:14:58.441Z,13.45
2023-03-06T23:17:45.258Z,14.02
2023-03-06T23:20:32.920Z,14.90
2023-03-06T23:23:20.064Z,16.95
2023-03-06T23:25:49.095Z,14.85
2023-03-06T23:28:17.639Z,18.05
2023-03-06T23:30:45.930Z,13.40
2023-03-06T23:33:14.098Z,16.50
2023-03-06T23:35:44.294Z,15.55
2023-03-06T23:38:13.344Z,15.23
2023-03-06T23:40:42.555Z,15.57
2023-03-06T23:43:10.572Z,16.45
2023-03-06T23:45:39.370Z,16.00
2023-03-06T23:48:09.669Z,16.65
2023-03-06T23:50:41.192Z,16.42
2023-03-06T23:53:09.330Z,16.83
2023-03-06T23:55:43.313Z,15.77
2023-03-06T23:58:12.327Z,15.38
